createdAt,value
2018-03-18T00:00:34.653Z,49.02
2018-03-18T00:03:03.170Z,49.08
2018-03-18T00:05:30.739Z,48.84
2018-03-18T00:07:58.288Z,49.59
2018-03-18T00:10:27.653Z,49.23
2018-03-18T00:12:57.069Z,49.35
2018-03-18T00:15:24.513Z,49.25
2018-03-18T00:17:51.961Z,49.81
2018-03-18T00:20:19.429Z,49.68
2018-03-18T00:22:47.950Z,49.73
2018-03-18T00:25:15.448Z,50.40
2018-03-18T00:27:42.932Z,50.92
2018-03-18T00:30:10.396Z,50.90
2018-03-18T00:32:37.922Z,50.09
2018-03-18T00:35:07.424Z,50.08
2018-03-18T00:37:34.913Z,49.91
2018-03-18T00:40:03.397Z,49.73
2018-03-18T00:42:30.857Z,49.42
2018-03-18T00:44:58.324Z,49.32
2018-03-18T00:47:25.778Z,49.06
2018-03-18T00:49:53.242Z,49.02
2018-03-18T00:52:20.702Z,49.22
2018-03-18T00:54:48.185Z,49.78
2018-03-18T00:57:15.641Z,49.67
2018-03-18T00:59:43.108Z,49.65
2018-03-18T01:02:10.549Z,49.31
2018-03-18T01:04:38.067Z,49.40
2018-03-18T01:07:05.509Z,49.57
2018-03-18T01:09:33.028Z,49.46
2018-03-18T01:12:00.472Z,49.71
2018-03-18T01:14:28.001Z,49.43
2018-03-18T01:16:55.445Z,49.31
2018-03-18T01:19:22.905Z,48.91
2018-03-18T01:21:50.349Z,48.59
2018-03-18T01:24:17.912Z,48.64
2018-03-18T01:26:45.363Z,48.78
2018-03-18T01:29:12.825Z,48.52
2018-03-18T01:31:40.273Z,48.19
2018-03-18T01:34:08.653Z,47.83
2018-03-18T01:36:36.111Z,48.49
2018-03-18T01:39:03.579Z,47.45
2018-03-18T01:41:31.024Z,47.66
2018-03-18T01:43:58.501Z,47.62
2018-03-18T01:46:25.969Z,47.70
2018-03-18T01:48:53.510Z,48.06
2018-03-18T01:51:20.965Z,47.90
2018-03-18T01:53:48.445Z,46.95
2018-03-18T01:56:15.985Z,47.32
2018-03-18T01:58:43.554Z,47.82
2018-03-18T02:01:11.074Z,48.51
2018-03-18T02:03:38.546Z,48.67
2018-03-18T02:06:06.002Z,49.14
2018-03-18T02:08:33.508Z,49.14
2018-03-18T02:11:01.029Z,48.17
2018-03-18T02:13:28.498Z,48.35
2018-03-18T02:18:46.406Z,48.70
2018-03-18T02:21:13.834Z,48.91
2018-03-18T02:23:41.274Z,49.07
2018-03-18T02:26:08.706Z,49.31
2018-03-18T02:28:36.146Z,49.41
2018-03-18T02:31:03.590Z,49.39
2018-03-18T02:33:31.980Z,49.02
2018-03-18T02:35:59.429Z,49.23
2018-03-18T02:38:26.887Z,49.13
2018-03-18T02:40:54.385Z,49.06
2018-03-18T02:43:21.845Z,49.25
2018-03-18T02:45:49.297Z,49.60
2018-03-18T02:48:16.757Z,49.15
2018-03-18T02:50:44.228Z,49.24
2018-03-18T02:53:11.762Z,49.67
2018-03-18T02:55:39.214Z,50.20
2018-03-18T02:58:07.678Z,51.02
2018-03-18T03:00:35.136Z,50.92
2018-03-18T03:03:02.610Z,51.44
2018-03-18T03:05:31.097Z,51.86
2018-03-18T03:07:58.574Z,52.38
2018-03-18T03:10:26.029Z,52.82
2018-03-18T03:12:53.569Z,53.40
2018-03-18T03:15:21.029Z,53.46
2018-03-18T03:17:48.506Z,53.23
2018-03-18T03:20:15.949Z,53.41
2018-03-18T03:22:43.416Z,53.51
2018-03-18T03:25:11.848Z,53.28
2018-03-18T03:27:39.316Z,53.68
2018-03-18T03:30:06.771Z,53.39
2018-03-18T03:32:34.244Z,53.85
2018-03-18T03:35:01.744Z,53.79
2018-03-18T03:37:29.178Z,52.87
2018-03-18T03:39:56.655Z,52.88
2018-03-18T03:42:24.104Z,52.34
2018-03-18T03:44:51.554Z,52.22
2018-03-18T03:47:19.016Z,52.06
2018-03-18T03:49:46.456Z,52.07
2018-03-18T03:52:13.934Z,52.32
2018-03-18T03:54:42.348Z,52.32
2018-03-18T03:57:09.808Z,50.88
2018-03-18T03:59:37.258Z,49.65
2018-03-18T04:02:05.628Z,49.21
2018-03-18T04:04:33.086Z,48.46
2018-03-18T04:07:01.500Z,48.74
2018-03-18T04:09:28.961Z,48.72
2018-03-18T04:11:56.432Z,47.63
2018-03-18T04:14:23.879Z,47.63
2018-03-18T04:16:51.344Z,48.08
2018-03-18T04:19:18.789Z,47.44
2018-03-18T04:21:46.340Z,48.08
2018-03-18T04:24:13.792Z,47.70
2018-03-18T04:26:41.257Z,47.00
2018-03-18T04:29:08.705Z,47.43
2018-03-18T04:31:36.168Z,46.17
2018-03-18T04:34:03.620Z,46.81
2018-03-18T04:36:31.185Z,46.95
2018-03-18T04:38:58.641Z,46.26
2018-03-18T04:41:26.097Z,46.49
2018-03-18T04:43:53.700Z,46.04
2018-03-18T04:46:21.219Z,45.99
2018-03-18T04:48:48.669Z,45.35
2018-03-18T04:51:16.142Z,45.00
2018-03-18T04:53:44.494Z,45.10
2018-03-18T04:56:11.962Z,44.97
2018-03-18T04:58:39.418Z,44.87
2018-03-18T05:01:06.889Z,44.26
2018-03-18T05:03:34.350Z,44.10
2018-03-18T05:06:01.820Z,44.67
2018-03-18T05:08:29.265Z,45.05
2018-03-18T05:10:56.750Z,45.33
2018-03-18T05:13:25.161Z,43.32
2018-03-18T05:15:52.622Z,43.83
2018-03-18T05:18:20.988Z,43.71
2018-03-18T05:20:48.454Z,43.69
2018-03-18T05:23:15.912Z,43.33
2018-03-18T05:25:44.304Z,43.34
2018-03-18T05:28:11.750Z,43.04
2018-03-18T05:30:39.250Z,42.62
2018-03-18T05:33:06.681Z,43.08
2018-03-18T05:35:34.158Z,43.07
2018-03-18T05:38:03.613Z,43.36
2018-03-18T05:40:31.073Z,43.40
2018-03-18T05:42:59.447Z,43.74
2018-03-18T05:45:26.913Z,43.94
2018-03-18T05:47:54.365Z,43.56
2018-03-18T05:50:22.758Z,43.94
2018-03-18T05:52:50.195Z,43.98
2018-03-18T05:55:17.653Z,43.49
2018-03-18T05:57:46.061Z,43.25
2018-03-18T06:00:13.534Z,43.24
2018-03-18T06:02:41.884Z,43.90
2018-03-18T06:05:10.267Z,44.08
2018-03-18T06:07:37.726Z,43.35
2018-03-18T06:10:05.191Z,43.81
2018-03-18T06:12:32.702Z,43.48
2018-03-18T06:15:00.210Z,43.47
2018-03-18T06:17:27.656Z,43.39
2018-03-18T06:19:55.119Z,42.82
2018-03-18T06:22:22.570Z,42.02
2018-03-18T06:24:50.040Z,42.13
2018-03-18T06:27:17.489Z,41.79
2018-03-18T06:29:44.959Z,42.70
2018-03-18T06:32:13.454Z,42.09
2018-03-18T06:34:40.928Z,42.22
2018-03-18T06:37:08.372Z,42.32
2018-03-18T06:39:35.812Z,41.59
2018-03-18T06:42:03.287Z,41.68
2018-03-18T06:44:30.732Z,41.66
2018-03-18T06:46:58.188Z,41.10
2018-03-18T06:49:26.622Z,41.63
2018-03-18T06:51:54.117Z,41.32
2018-03-18T06:54:21.577Z,40.96
2018-03-18T06:56:49.057Z,40.47
2018-03-18T06:59:16.519Z,39.34
2018-03-18T07:01:43.989Z,38.67
2018-03-18T07:04:11.439Z,38.69
2018-03-18T07:06:38.953Z,38.36
2018-03-18T07:09:06.420Z,38.05
2018-03-18T07:11:33.976Z,37.98
2018-03-18T07:14:02.408Z,38.44
2018-03-18T07:16:29.876Z,37.08
2018-03-18T07:18:57.316Z,37.17
2018-03-18T07:21:24.788Z,37.14
2018-03-18T07:23:52.241Z,36.81
2018-03-18T07:26:19.723Z,36.67
2018-03-18T07:28:47.197Z,36.32
2018-03-18T07:31:14.662Z,36.12
2018-03-18T07:33:42.118Z,35.63
2018-03-18T07:36:09.772Z,35.88
2018-03-18T07:38:37.394Z,34.50
2018-03-18T07:41:04.813Z,34.45
2018-03-18T07:43:32.270Z,34.65
2018-03-18T07:46:00.714Z,34.32
2018-03-18T07:48:28.175Z,34.32
2018-03-18T07:50:55.637Z,33.42
2018-03-18T07:53:23.124Z,33.79
2018-03-18T07:55:50.606Z,33.58
2018-03-18T07:58:18.055Z,33.25
2018-03-18T08:00:46.487Z,33.70
2018-03-18T08:03:13.937Z,33.90
2018-03-18T08:05:41.401Z,34.30
2018-03-18T08:08:08.854Z,33.81
2018-03-18T08:10:36.317Z,33.97
2018-03-18T08:13:03.777Z,33.49
2018-03-18T08:15:31.241Z,32.84
2018-03-18T08:17:58.684Z,32.83
2018-03-18T08:20:26.236Z,32.24
2018-03-18T08:22:53.697Z,32.78
2018-03-18T08:25:21.165Z,32.70
2018-03-18T08:27:48.631Z,32.02
2018-03-18T08:30:16.082Z,31.56
2018-03-18T08:32:43.553Z,32.49
2018-03-18T08:35:11.025Z,33.19
2018-03-18T08:37:38.496Z,33.56
2018-03-18T08:40:06.196Z,34.01
2018-03-18T08:42:33.685Z,33.91
2018-03-18T08:45:02.047Z,33.69
2018-03-18T08:47:29.514Z,33.39
2018-03-18T08:49:56.981Z,33.31
2018-03-18T08:52:24.557Z,32.53
2018-03-18T08:54:52.027Z,32.63
2018-03-18T08:57:19.676Z,32.47
2018-03-18T08:59:47.137Z,33.24
2018-03-18T09:02:14.609Z,36.66
2018-03-18T09:04:42.061Z,42.42
2018-03-18T09:07:09.528Z,37.36
2018-03-18T09:09:36.974Z,34.40
2018-03-18T09:12:05.441Z,31.73
2018-03-18T09:14:32.929Z,32.35
2018-03-18T09:17:00.410Z,32.70
2018-03-18T09:19:28.854Z,33.33
2018-03-18T09:21:56.331Z,33.13
2018-03-18T09:24:23.793Z,33.51
2018-03-18T09:26:51.303Z,33.84
2018-03-18T09:29:18.800Z,34.69
2018-03-18T09:31:46.257Z,34.47
2018-03-18T09:34:13.708Z,34.57
2018-03-18T09:36:41.391Z,33.70
2018-03-18T09:39:08.849Z,33.98
2018-03-18T09:41:36.317Z,33.93
2018-03-18T09:44:03.835Z,34.48
2018-03-18T09:46:31.301Z,33.94
2018-03-18T09:48:58.775Z,35.05
2018-03-18T09:51:26.253Z,35.93
2018-03-18T09:53:54.713Z,36.22
2018-03-18T09:56:24.249Z,35.92
2018-03-18T09:58:54.962Z,36.70
2018-03-18T10:01:24.373Z,36.08
2018-03-18T10:03:51.850Z,35.86
2018-03-18T10:06:19.314Z,36.65
2018-03-18T10:08:46.793Z,37.28
2018-03-18T10:11:15.213Z,36.39
2018-03-18T10:13:42.673Z,36.30
2018-03-18T10:16:10.129Z,35.58
2018-03-18T10:18:37.585Z,36.09
2018-03-18T10:21:05.058Z,35.73
2018-03-18T10:23:32.506Z,35.94
2018-03-18T10:25:59.953Z,35.49
2018-03-18T10:28:27.416Z,34.42
2018-03-18T10:30:54.879Z,33.63
2018-03-18T10:33:22.377Z,33.80
2018-03-18T10:35:49.877Z,34.35
2018-03-18T10:38:17.335Z,34.88
2018-03-18T10:40:45.826Z,34.75
2018-03-18T10:43:13.280Z,35.51
2018-03-18T10:45:40.748Z,34.99
2018-03-18T10:48:09.134Z,35.32
2018-03-18T10:50:36.600Z,34.90
2018-03-18T10:53:04.070Z,35.14
2018-03-18T10:55:31.524Z,36.00
2018-03-18T10:57:58.993Z,36.67
2018-03-18T11:00:32.242Z,35.83
2018-03-18T11:02:59.710Z,35.62
2018-03-18T11:05:27.174Z,33.55
2018-03-18T11:07:54.642Z,34.00
2018-03-18T11:10:22.114Z,33.87
2018-03-18T11:12:50.475Z,33.85
2018-03-18T11:15:17.923Z,33.82
2018-03-18T11:17:45.399Z,34.18
2018-03-18T11:20:12.848Z,33.28
2018-03-18T11:22:40.412Z,35.75
2018-03-18T11:25:07.866Z,35.90
2018-03-18T11:27:35.329Z,35.02
2018-03-18T11:30:02.821Z,34.13
2018-03-18T11:32:30.283Z,35.54
2018-03-18T11:34:59.678Z,35.78
2018-03-18T11:37:27.137Z,35.19
2018-03-18T11:39:54.582Z,34.16
2018-03-18T11:42:22.042Z,36.11
2018-03-18T11:44:49.497Z,34.93
2018-03-18T11:47:17.002Z,33.75
2018-03-18T11:49:44.457Z,34.39
2018-03-18T11:52:11.969Z,35.29
2018-03-18T11:54:39.425Z,37.04
2018-03-18T11:57:06.907Z,35.76
2018-03-18T11:59:34.397Z,35.54
2018-03-18T12:02:01.940Z,33.83
2018-03-18T12:04:30.386Z,34.25
2018-03-18T12:06:58.607Z,35.66
2018-03-18T12:09:26.093Z,35.21
2018-03-18T12:11:53.558Z,35.97
2018-03-18T12:14:21.059Z,36.01
2018-03-18T12:16:48.529Z,36.11
2018-03-18T12:19:16.091Z,35.58
2018-03-18T12:21:43.549Z,35.81
2018-03-18T12:24:11.061Z,35.80
2018-03-18T12:26:40.418Z,35.39
2018-03-18T12:29:07.938Z,36.51
2018-03-18T12:31:35.381Z,35.45
2018-03-18T12:34:02.841Z,35.62
2018-03-18T12:36:30.285Z,34.95
2018-03-18T12:38:57.792Z,35.93
2018-03-18T12:41:25.268Z,35.68
2018-03-18T12:43:52.723Z,35.72
2018-03-18T12:46:20.223Z,36.15
2018-03-18T12:48:47.714Z,35.30
2018-03-18T12:51:15.163Z,35.02
2018-03-18T12:53:42.625Z,35.45
2018-03-18T12:56:10.079Z,36.09
2018-03-18T12:58:37.544Z,35.90
2018-03-18T13:01:05.018Z,35.81
2018-03-18T13:03:32.517Z,36.35
2018-03-18T13:06:00.025Z,35.57
2018-03-18T13:08:27.443Z,36.89
2018-03-18T13:10:54.914Z,37.91
2018-03-18T13:13:22.377Z,37.56
2018-03-18T13:15:49.822Z,38.56
2018-03-18T13:18:17.280Z,40.57
2018-03-18T13:20:44.729Z,41.61
2018-03-18T13:23:12.193Z,40.96
2018-03-18T13:25:39.645Z,41.94
2018-03-18T13:28:07.100Z,42.39
2018-03-18T13:30:34.545Z,42.09
2018-03-18T13:33:02.922Z,41.46
2018-03-18T13:35:30.366Z,39.38
2018-03-18T13:37:57.823Z,39.50
2018-03-18T13:40:25.290Z,39.00
2018-03-18T13:42:52.740Z,38.87
2018-03-18T13:45:20.238Z,39.71
2018-03-18T13:47:48.689Z,39.43
2018-03-18T13:50:16.153Z,39.10
2018-03-18T13:52:43.606Z,38.23
2018-03-18T13:55:11.100Z,36.91
2018-03-18T13:57:38.555Z,36.95
2018-03-18T14:00:06.025Z,36.25
2018-03-18T14:02:33.548Z,36.22
2018-03-18T14:05:01.039Z,38.20
2018-03-18T14:07:28.550Z,39.73
2018-03-18T14:09:56.035Z,40.64
2018-03-18T14:12:23.480Z,40.46
2018-03-18T14:14:50.962Z,40.72
2018-03-18T14:17:18.424Z,39.89
2018-03-18T14:19:45.923Z,39.40
2018-03-18T14:22:13.376Z,37.69
2018-03-18T14:24:40.828Z,36.75
2018-03-18T14:27:08.335Z,35.83
2018-03-18T14:29:35.789Z,35.98
2018-03-18T14:32:03.234Z,34.74
2018-03-18T14:34:31.723Z,31.69
2018-03-18T14:36:59.172Z,33.67
2018-03-18T14:39:26.660Z,35.51
2018-03-18T14:41:54.125Z,32.75
2018-03-18T14:44:23.506Z,31.36
2018-03-18T14:46:50.967Z,34.13
2018-03-18T14:49:18.443Z,32.20
2018-03-18T14:51:46.884Z,29.16
2018-03-18T14:54:14.347Z,30.43
2018-03-18T14:56:41.785Z,28.65
2018-03-18T14:59:09.264Z,24.75
2018-03-18T15:01:36.727Z,28.70
2018-03-18T15:04:04.214Z,25.50
2018-03-18T15:06:31.665Z,28.74
2018-03-18T15:08:59.130Z,31.50
2018-03-18T15:11:26.578Z,39.77
2018-03-18T15:13:54.065Z,43.84
2018-03-18T15:16:21.513Z,40.89
2018-03-18T15:18:49.007Z,37.27
2018-03-18T15:21:16.470Z,31.03
2018-03-18T15:23:43.969Z,34.31
2018-03-18T15:26:12.374Z,42.28
2018-03-18T15:28:40.769Z,49.67
2018-03-18T15:31:08.422Z,37.60
2018-03-18T15:33:35.881Z,38.05
2018-03-18T15:36:03.330Z,35.55
2018-03-18T15:38:30.779Z,33.47
2018-03-18T15:40:58.235Z,36.23
2018-03-18T15:43:25.695Z,28.02
2018-03-18T15:45:53.151Z,29.19
2018-03-18T15:48:20.621Z,25.62
2018-03-18T15:50:48.991Z,25.54
2018-03-18T15:53:16.448Z,29.88
2018-03-18T15:55:43.962Z,29.06
2018-03-18T15:58:11.452Z,36.12
2018-03-18T16:00:38.909Z,36.75
2018-03-18T16:03:06.414Z,29.51
2018-03-18T16:05:33.849Z,30.99
2018-03-18T16:08:01.298Z,31.91
2018-03-18T16:10:28.817Z,25.30
2018-03-18T16:12:56.281Z,29.15
2018-03-18T16:15:23.779Z,33.46
2018-03-18T16:17:51.221Z,34.74
2018-03-18T16:20:18.680Z,38.81
2018-03-18T16:22:46.161Z,41.06
2018-03-18T16:25:15.622Z,43.73
2018-03-18T16:27:43.061Z,45.90
2018-03-18T16:30:22.507Z,45.86
2018-03-18T16:32:49.973Z,46.68
2018-03-18T16:35:17.425Z,46.37
2018-03-18T16:37:45.888Z,45.92
2018-03-18T16:40:13.342Z,43.69
2018-03-18T16:42:42.738Z,43.74
2018-03-18T16:45:10.208Z,47.43
2018-03-18T16:47:37.670Z,49.78
2018-03-18T16:50:05.137Z,51.80
2018-03-18T16:52:32.650Z,52.11
2018-03-18T16:55:00.128Z,51.70
2018-03-18T16:57:27.641Z,51.72
2018-03-18T16:59:55.127Z,51.91
2018-03-18T17:02:22.593Z,52.20
2018-03-18T17:04:50.111Z,52.75
2018-03-18T17:07:17.561Z,53.35
2018-03-18T17:09:45.033Z,53.46
2018-03-18T17:12:12.498Z,53.75
2018-03-18T17:14:39.985Z,53.94
2018-03-18T17:17:07.433Z,53.79
2018-03-18T17:19:34.912Z,54.23
2018-03-18T17:22:02.405Z,54.64
2018-03-18T17:24:29.922Z,55.15
2018-03-18T17:26:58.164Z,55.01
2018-03-18T17:29:25.646Z,55.26
2018-03-18T17:31:53.199Z,55.34
2018-03-18T17:34:21.855Z,55.47
2018-03-18T17:36:49.313Z,55.96
2018-03-18T17:39:16.799Z,55.83
2018-03-18T17:41:45.191Z,56.49
2018-03-18T17:44:26.569Z,56.78
2018-03-18T17:47:05.957Z,56.89
2018-03-18T17:49:45.412Z,56.95
2018-03-18T17:52:24.671Z,56.78
2018-03-18T17:55:04.065Z,57.50
2018-03-18T17:57:31.547Z,57.73
2018-03-18T17:59:59.027Z,58.34
2018-03-18T18:02:26.482Z,58.38
2018-03-18T18:04:55.004Z,58.37
2018-03-18T18:07:22.455Z,58.57
2018-03-18T18:09:50.885Z,58.54
2018-03-18T18:12:18.341Z,59.07
2018-03-18T18:14:45.835Z,58.92
2018-03-18T18:17:13.284Z,58.56
2018-03-18T18:19:40.769Z,59.02
2018-03-18T18:22:08.269Z,59.21
2018-03-18T18:24:35.744Z,59.41
2018-03-18T18:27:03.242Z,59.26
2018-03-18T18:29:31.613Z,59.06
2018-03-18T18:31:59.174Z,58.60
2018-03-18T18:34:26.646Z,58.56
2018-03-18T18:36:54.088Z,58.40
2018-03-18T18:39:21.549Z,58.58
2018-03-18T18:41:49.029Z,58.59
2018-03-18T18:44:16.526Z,58.70
2018-03-18T18:46:47.432Z,59.11
2018-03-18T18:49:14.899Z,59.20
2018-03-18T18:51:43.281Z,59.49
2018-03-18T18:54:10.739Z,59.34
2018-03-18T18:56:38.252Z,59.55
2018-03-18T18:59:05.716Z,59.70
2018-03-18T19:01:33.187Z,59.55
2018-03-18T19:04:01.573Z,59.76
2018-03-18T19:06:29.046Z,59.88
2018-03-18T19:08:56.493Z,59.96
2018-03-18T19:11:23.973Z,60.10
2018-03-18T19:13:51.443Z,60.52
2018-03-18T19:16:18.888Z,60.34
2018-03-18T19:18:46.385Z,60.39
2018-03-18T19:21:16.852Z,60.67
2018-03-18T19:23:44.322Z,60.48
2018-03-18T19:26:11.789Z,60.36
2018-03-18T19:28:39.294Z,60.79
2018-03-18T19:31:08.743Z,63.13
2018-03-18T19:33:37.970Z,59.56
2018-03-18T19:36:05.458Z,60.05
2018-03-18T19:38:32.957Z,60.46
2018-03-18T19:41:00.449Z,60.56
2018-03-18T19:43:28.866Z,61.17
2018-03-18T19:45:58.080Z,61.53
2018-03-18T19:48:27.287Z,61.79
2018-03-18T19:50:54.758Z,62.13
2018-03-18T19:53:23.220Z,61.95
2018-03-18T19:55:50.670Z,61.88
2018-03-18T19:58:18.154Z,62.10
2018-03-18T20:00:45.636Z,62.41
2018-03-18T20:03:16.461Z,62.82
2018-03-18T20:05:43.934Z,62.06
2018-03-18T20:08:11.413Z,62.27
2018-03-18T20:10:38.893Z,62.27
2018-03-18T20:13:07.743Z,62.12
2018-03-18T20:15:42.184Z,62.28
2018-03-18T20:18:09.653Z,62.31
2018-03-18T20:20:37.140Z,62.45
2018-03-18T20:23:05.574Z,62.46
2018-03-18T20:25:33.068Z,62.76
2018-03-18T20:28:00.556Z,62.96
2018-03-18T20:30:29.581Z,62.84
2018-03-18T20:32:57.186Z,62.92
2018-03-18T20:35:24.669Z,62.85
2018-03-18T20:37:52.138Z,62.91
2018-03-18T20:40:20.535Z,63.47
2018-03-18T20:42:49.031Z,63.29
2018-03-18T20:45:16.549Z,63.04
2018-03-18T20:47:44.021Z,63.01
2018-03-18T20:50:11.469Z,63.43
2018-03-18T20:52:39.047Z,63.45
2018-03-18T20:55:06.511Z,63.62
2018-03-18T20:57:35.129Z,63.68
2018-03-18T21:00:02.607Z,63.95
2018-03-18T21:02:30.106Z,64.03
2018-03-18T21:04:57.716Z,63.73
2018-03-18T21:07:25.178Z,64.20
2018-03-18T21:09:54.679Z,64.10
2018-03-18T21:12:22.258Z,64.32
2018-03-18T21:14:49.726Z,64.28
2018-03-18T21:17:17.257Z,64.33
2018-03-18T21:19:44.714Z,64.76
2018-03-18T21:22:12.343Z,64.74
2018-03-18T21:24:41.721Z,65.01
2018-03-18T21:27:09.194Z,64.84
2018-03-18T21:29:36.681Z,64.93
2018-03-18T21:32:05.196Z,64.78
2018-03-18T21:34:39.257Z,65.02
2018-03-18T21:37:07.702Z,64.40
2018-03-18T21:39:35.229Z,65.10
2018-03-18T21:42:02.747Z,64.96
2018-03-18T21:44:31.134Z,65.37
2018-03-18T21:46:59.548Z,65.40
2018-03-18T21:49:27.005Z,64.81
2018-03-18T21:51:54.719Z,64.95
2018-03-18T21:54:22.257Z,64.76
2018-03-18T21:56:49.707Z,65.02
2018-03-18T21:59:17.177Z,65.17
2018-03-18T22:04:35.049Z,65.13
2018-03-18T22:07:02.487Z,65.15
2018-03-18T22:09:29.931Z,65.01
2018-03-18T22:11:57.406Z,64.49
2018-03-18T22:14:24.881Z,64.39
2018-03-18T22:16:52.333Z,64.67
2018-03-18T22:19:19.901Z,64.56
2018-03-18T22:21:48.445Z,64.06
2018-03-18T22:24:16.909Z,63.35
2018-03-18T22:26:44.364Z,63.43
2018-03-18T22:29:11.944Z,63.78
2018-03-18T22:31:39.470Z,63.46
2018-03-18T22:34:06.954Z,63.46
2018-03-18T22:36:34.409Z,63.45
2018-03-18T22:39:01.941Z,63.51
2018-03-18T22:41:29.401Z,63.68
2018-03-18T22:43:56.967Z,63.92
2018-03-18T22:46:24.450Z,64.19
2018-03-18T22:48:51.913Z,64.75
2018-03-18T22:51:19.363Z,64.66
2018-03-18T22:53:46.933Z,64.85
2018-03-18T22:56:14.399Z,65.04
2018-03-18T22:58:41.870Z,64.90
2018-03-18T23:01:09.329Z,64.92
2018-03-18T23:03:36.817Z,65.12
2018-03-18T23:06:04.357Z,65.18
2018-03-18T23:08:31.865Z,65.23
2018-03-18T23:10:59.337Z,65.50
2018-03-18T23:13:27.705Z,65.62
2018-03-18T23:15:55.185Z,66.09
2018-03-18T23:18:22.682Z,65.52
2018-03-18T23:20:50.221Z,65.52
2018-03-18T23:23:17.695Z,65.66
2018-03-18T23:25:45.161Z,65.76
2018-03-18T23:28:12.634Z,65.73
2018-03-18T23:30:41.109Z,65.92
2018-03-18T23:33:08.589Z,66.22
2018-03-18T23:35:37.999Z,66.24
2018-03-18T23:38:06.437Z,66.10
2018-03-18T23:40:34.808Z,66.90
2018-03-18T23:43:02.272Z,66.88
2018-03-18T23:45:30.650Z,66.94
2018-03-18T23:47:58.105Z,66.85
2018-03-18T23:50:25.560Z,66.87
2018-03-18T23:52:53.031Z,67.31
2018-03-18T23:55:20.473Z,66.92
2018-03-18T23:57:49.845Z,66.37
